Moreton-in-Marsh, United Kingdom
Current Conditions -  °F | °C
As of 7:50 PM on Monday 24 Nov 2014 (Local Time) from EGVN Reporting Station
Haze Haze  
Wind Chill: 32°   Ceiling: Unl
Heat Index: 32°   Visibility: 2.5mi
Dew Point: 32°   Wind: 2mph
Humidity: 100%   Direction: 340°NNW
Pressure: 30.33"   Gusts: NA
Location:  51.99°N, 1.7°W
Report Text: EGVN 241950Z 34002KT 4000 BR FEW220 00/00 Q1027 GRN NOSIG
Loading
Personal Weather Stations






























Interactive Weather Map New forecast layout! Learn more

10-Day Weather Forecast

Advertisements
Track Severe Weather on mobile